Time;durP1;ratioP1;P1;durP2;ratioP2;P2;SDS_P1;SDS_P2;PMS_P1;PMS_P2;Temp;Humidity;BMP_temperature;BMP_pressure;BME280_temperature;BME280_humidity;BME280_pressure;Samples;Min_cycle;Max_cycle;Signal;HPM_P1;HPM_P2
2023/09/15 00:01:41;;;;;;;9.05;5.07;;;;;;;18.50;72.39;93036.00;2071441;69;20159;-78
2023/09/15 00:04:11;;;;;;;7.43;4.85;;;;;;;18.50;71.64;93031.03;2071127;69;20323;-80
2023/09/15 00:06:37;;;;;;;8.23;5.60;;;;;;;18.36;72.86;93033.38;2071013;69;20145;-79
2023/09/15 00:09:15;;;;;;;6.55;4.55;;;;;;;18.53;72.35;93026.16;2071357;69;20169;-80
2023/09/15 00:11:42;;;;;;;7.78;4.97;;;;;;;18.53;72.78;93032.59;2070846;69;20588;-79
2023/09/15 00:14:09;;;;;;;8.20;4.75;;;;;;;18.49;73.40;93028.84;2068007;69;20132;-79
2023/09/15 00:16:35;;;;;;;8.60;4.43;;;;;;;18.49;72.95;93032.44;2071146;69;20144;-79
2023/09/15 00:19:03;;;;;;;8.07;5.15;;;;;;;18.40;73.14;93027.09;2071243;69;20544;-79
2023/09/15 00:21:29;;;;;;;12.57;4.95;;;;;;;18.21;73.63;93020.72;2071144;69;20163;-81
2023/09/15 00:23:56;;;;;;;6.75;4.80;;;;;;;18.27;73.82;93029.47;2068363;69;20605;-78
2023/09/15 00:26:25;;;;;;;6.90;4.70;;;;;;;18.34;74.05;93027.59;2072247;69;20140;-79
2023/09/15 00:28:51;;;;;;;6.45;4.53;;;;;;;18.29;73.79;93026.72;2072538;69;20160;-81
2023/09/15 00:31:17;;;;;;;6.82;4.45;;;;;;;18.24;74.28;93030.81;2072126;69;20167;-80
2023/09/15 00:33:45;;;;;;;6.13;4.45;;;;;;;18.18;74.63;93027.72;2068915;69;20136;-80
2023/09/15 00:36:10;;;;;;;5.82;4.20;;;;;;;18.28;73.81;93030.22;2069263;69;20136;-79
2023/09/15 00:38:37;;;;;;;7.65;4.82;;;;;;;18.14;74.76;93027.56;2068747;69;20152;-79
2023/09/15 00:41:02;;;;;;;8.15;4.38;;;;;;;18.13;75.07;93017.53;2071719;69;20179;-80
2023/09/15 00:43:28;;;;;;;9.63;5.15;;;;;;;18.18;74.39;93015.59;2071688;69;20615;-78
2023/09/15 00:45:55;;;;;;;8.38;4.90;;;;;;;18.25;74.24;93022.97;2071662;69;20287;-78
2023/09/15 00:48:22;;;;;;;11.52;5.35;;;;;;;18.31;73.66;93016.78;2071553;69;20516;-79
2023/09/15 00:50:48;;;;;;;8.32;5.07;;;;;;;17.95;75.70;93020.44;2068278;69;20151;-79
2023/09/15 00:53:19;;;;;;;5.88;5.00;;;;;;;18.17;73.42;93014.13;2068195;69;20172;-79
2023/09/15 00:55:47;;;;;;;6.95;5.25;;;;;;;18.21;73.91;93009.31;2071412;69;20148;-78
2023/09/15 00:58:16;;;;;;;9.63;5.35;;;;;;;18.22;73.95;93002.22;2071489;69;20151;-79
2023/09/15 01:00:43;;;;;;;7.75;5.70;;;;;;;18.09;74.63;93008.13;2071641;69;20612;-80
2023/09/15 01:03:11;;;;;;;8.38;4.97;;;;;;;18.06;74.82;93001.63;2068237;69;20172;-78
2023/09/15 01:05:40;;;;;;;8.43;5.68;;;;;;;18.13;74.27;92996.88;2072083;69;20160;-80
2023/09/15 01:08:10;;;;;;;8.40;5.05;;;;;;;18.09;74.72;92996.72;2065667;69;20223;-80
2023/09/15 01:10:36;;;;;;;8.43;5.20;;;;;;;18.10;74.74;92996.09;2068328;69;20137;-79
2023/09/15 01:13:04;;;;;;;8.90;4.95;;;;;;;18.08;74.37;92992.41;2068503;69;20160;-80
2023/09/15 01:15:51;;;;;;;7.40;4.50;;;;;;;18.04;74.98;92998.69;2065762;69;20164;-81
2023/09/15 01:18:26;;;;;;;6.72;4.90;;;;;;;18.01;75.39;92997.88;2072128;69;20136;-80
2023/09/15 01:21:07;;;;;;;9.35;5.32;;;;;;;17.95;76.49;92999.75;2065724;69;20601;-80
2023/09/15 01:23:44;;;;;;;9.27;4.90;;;;;;;17.98;74.04;92995.63;2071712;69;20658;-80
2023/09/15 01:26:40;;;;;;;11.80;5.50;;;;;;;17.98;74.97;92998.47;2068435;69;20612;-79
2023/09/15 01:29:17;;;;;;;7.38;5.18;;;;;;;17.86;75.52;93004.41;2068350;69;20140;-80
2023/09/15 01:31:46;;;;;;;8.15;5.07;;;;;;;17.86;75.60;93001.56;2071497;69;20144;-83
2023/09/15 01:34:16;;;;;;;11.60;5.50;;;;;;;17.90;75.11;93001.00;2068359;69;20145;-79
2023/09/15 01:36:43;;;;;;;8.55;5.50;;;;;;;17.82;75.41;92995.72;2071587;69;20258;-79
2023/09/15 01:39:09;;;;;;;8.70;5.40;;;;;;;17.87;74.94;92999.44;2068666;69;20606;-79
2023/09/15 01:41:36;;;;;;;9.50;5.63;;;;;;;17.89;74.93;93002.38;2071584;69;20132;-79
2023/09/15 01:44:03;;;;;;;8.38;5.50;;;;;;;17.88;75.17;93004.50;2071273;69;20176;-80
2023/09/15 01:46:28;;;;;;;9.25;5.55;;;;;;;17.91;74.85;92994.63;2071447;69;20198;-78
2023/09/15 01:48:57;;;;;;;10.65;5.60;;;;;;;17.87;75.47;93005.91;2071442;69;20156;-80
2023/09/15 01:51:25;;;;;;;6.45;5.45;;;;;;;17.83;75.43;93000.03;2071947;69;20160;-79
2023/09/15 01:53:52;;;;;;;6.97;5.63;;;;;;;17.88;75.21;93004.50;2071821;69;20761;-77
2023/09/15 01:56:19;;;;;;;8.02;5.75;;;;;;;17.88;74.99;92998.81;2068583;69;20239;-79
2023/09/15 01:58:45;;;;;;;9.48;5.82;;;;;;;17.81;75.64;93010.59;2068435;69;20520;-78
2023/09/15 02:01:13;;;;;;;10.75;5.88;;;;;;;17.84;75.87;93006.47;2071640;69;20128;-79
2023/09/15 02:03:38;;;;;;;8.55;5.20;;;;;;;17.76;76.57;93009.72;2068432;69;20627;-80
2023/09/15 02:06:04;;;;;;;7.30;5.32;;;;;;;17.84;75.57;93023.56;2068348;69;20160;-79
2023/09/15 02:08:31;;;;;;;6.75;5.32;;;;;;;17.89;75.97;93014.50;2071786;69;20485;-79
2023/09/15 02:10:57;;;;;;;9.63;5.45;;;;;;;17.87;76.19;93013.69;2068516;69;20136;-77
2023/09/15 02:13:23;;;;;;;9.15;5.60;;;;;;;17.93;76.16;93020.34;2068587;69;20148;-78
2023/09/15 02:15:54;;;;;;;7.82;5.30;;;;;;;17.91;76.41;93020.28;2069011;69;20147;-79
2023/09/15 02:18:22;;;;;;;8.38;5.60;;;;;;;17.90;75.93;93020.94;2071768;69;20504;-78
2023/09/15 02:20:55;;;;;;;7.90;5.30;;;;;;;17.76;76.17;93021.09;2068856;69;20144;-77
2023/09/15 02:23:24;;;;;;;8.30;5.85;;;;;;;17.28;77.77;93006.38;2072248;69;20136;-81
2023/09/15 02:25:53;;;;;;;10.00;6.03;;;;;;;17.70;76.21;93020.84;2066964;69;20176;-81
2023/09/15 02:28:19;;;;;;;9.82;5.85;;;;;;;17.75;75.57;93014.69;2072563;69;20227;-81
2023/09/15 02:30:47;;;;;;;6.80;5.75;;;;;;;17.84;75.41;93018.59;2069457;69;20144;-81
2023/09/15 02:33:13;;;;;;;7.57;5.90;;;;;;;17.74;76.32;93018.91;2072305;69;20359;-80
2023/09/15 02:35:39;;;;;;;9.82;6.15;;;;;;;17.76;76.09;93024.69;2069205;69;20144;-80
2023/09/15 02:38:06;;;;;;;10.27;6.10;;;;;;;17.75;76.16;93020.38;2072541;69;20587;-81
2023/09/15 02:40:32;;;;;;;7.03;5.55;;;;;;;17.76;76.71;93023.97;2066239;69;20152;-81
2023/09/15 02:42:57;;;;;;;6.68;5.97;;;;;;;17.71;76.48;93017.34;2072637;69;20136;-81
2023/09/15 02:45:24;;;;;;;7.53;5.57;;;;;;;17.78;74.63;93012.66;2072514;69;20176;-79
2023/09/15 02:47:50;;;;;;;8.32;6.10;;;;;;;17.81;75.77;93008.50;2069154;69;20141;-79
2023/09/15 02:50:16;;;;;;;10.25;5.43;;;;;;;17.81;75.58;92999.94;2068831;69;20140;-78
2023/09/15 02:53:06;;;;;;;8.68;6.13;;;;;;;17.74;76.28;93001.09;2071987;69;20375;-78
2023/09/15 02:55:32;;;;;;;8.02;5.13;;;;;;;17.74;76.38;93001.09;2068572;69;20168;-80
2023/09/15 02:58:00;;;;;;;9.20;5.55;;;;;;;17.75;76.20;92997.59;2068633;69;20155;-79
2023/09/15 03:00:30;;;;;;;8.55;6.22;;;;;;;17.67;76.17;92999.38;2068741;69;20535;-78
2023/09/15 03:02:57;;;;;;;8.90;6.30;;;;;;;17.58;77.01;93003.28;2068477;69;20148;-78
2023/09/15 03:05:47;;;;;;;8.52;6.50;;;;;;;17.51;77.37;93005.16;2069003;69;20217;-79
2023/09/15 03:08:17;;;;;;;7.95;5.57;;;;;;;17.54;76.97;93004.56;2071718;69;20239;-79
2023/09/15 03:10:43;;;;;;;9.27;6.03;;;;;;;17.60;76.16;92997.69;2072470;69;20140;-80
2023/09/15 03:13:33;;;;;;;8.48;5.43;;;;;;;17.64;76.47;93003.50;2071832;69;20166;-80
2023/09/15 03:16:11;;;;;;;7.15;5.07;;;;;;;17.66;76.66;93000.75;2071377;69;20611;-79
2023/09/15 03:19:03;;;;;;;6.80;5.25;;;;;;;17.71;75.56;92994.56;2072398;69;20166;-83
2023/09/15 03:21:31;;;;;;;8.07;5.80;;;;;;;17.67;76.68;92997.25;2065631;69;20647;-81
2023/09/15 03:24:01;;;;;;;6.68;5.43;;;;;;;17.68;77.05;92987.31;2068511;69;20500;-84
2023/09/15 03:26:52;;;;;;;7.93;4.90;;;;;;;17.65;77.12;92991.50;2071828;69;20231;-82
2023/09/15 03:29:43;;;;;;;8.60;5.10;;;;;;;17.72;77.13;92995.28;2071803;69;20187;-81
2023/09/15 03:39:50;;;;;;;5.50;4.20;;;;;;;17.62;75.50;92974.97;2051109;70;20177;-79
2023/09/15 03:42:16;;;;;;;7.88;4.50;;;;;;;17.72;75.37;92976.09;2051901;70;20518;-81
2023/09/15 03:44:41;;;;;;;5.05;4.35;;;;;;;17.34;74.96;92980.28;2052680;70;20200;-78
2023/09/15 03:47:08;;;;;;;6.50;4.20;;;;;;;17.53;73.81;92980.34;2052054;70;20213;-80
2023/09/15 03:49:34;;;;;;;8.00;4.10;;;;;;;17.60;73.65;92975.63;2051385;70;20142;-80
2023/09/15 03:52:02;;;;;;;6.25;3.80;;;;;;;17.59;72.50;92976.28;2051131;70;20154;-81
2023/09/15 03:54:27;;;;;;;9.10;4.38;;;;;;;17.46;73.93;92975.09;2051745;70;20212;-84
2023/09/15 03:56:54;;;;;;;8.82;4.35;;;;;;;17.49;73.59;92963.09;2051739;69;20197;-79
2023/09/15 03:59:20;;;;;;;7.38;4.90;;;;;;;17.47;73.67;92965.16;2051745;70;20150;-80
2023/09/15 04:01:49;;;;;;;5.55;4.30;;;;;;;17.50;73.76;92969.53;2051718;70;20258;-80
2023/09/15 04:04:16;;;;;;;6.45;4.50;;;;;;;17.43;73.57;92962.88;2051790;70;20209;-79
2023/09/15 04:06:43;;;;;;;8.85;4.68;;;;;;;17.30;74.75;92963.78;2052280;70;20616;-80
2023/09/15 04:09:15;;;;;;;6.60;4.55;;;;;;;17.34;74.50;92968.91;2052314;70;20141;-78
2023/09/15 04:11:41;;;;;;;7.00;4.60;;;;;;;17.34;74.32;92963.19;2052472;70;20155;-79
2023/09/15 04:14:06;;;;;;;8.05;4.97;;;;;;;17.34;74.76;92966.06;2055827;70;20150;-81
2023/09/15 04:16:33;;;;;;;6.63;4.30;;;;;;;17.31;74.68;92959.53;2057635;69;20197;-81
2023/09/15 04:18:58;;;;;;;10.45;4.85;;;;;;;17.24;74.75;92966.38;2056991;70;20213;-80
2023/09/15 04:21:25;;;;;;;6.38;4.60;;;;;;;17.27;73.59;92965.81;2057680;70;20598;-80
2023/09/15 04:23:51;;;;;;;7.65;4.80;;;;;;;17.20;75.04;92969.06;2058336;69;20142;-82
2023/09/15 04:26:17;;;;;;;8.25;4.63;;;;;;;17.15;74.87;92973.13;2057625;70;20706;-82
2023/09/15 04:28:42;;;;;;;10.30;4.20;;;;;;;17.09;75.20;92967.16;2052071;70;20138;-80
2023/09/15 04:31:08;;;;;;;6.10;4.15;;;;;;;17.08;74.94;92966.44;2051835;70;20156;-80
2023/09/15 04:33:35;;;;;;;7.57;4.50;;;;;;;17.10;74.77;92963.69;2051613;70;20162;-79
2023/09/15 04:36:04;;;;;;;5.70;4.22;;;;;;;16.99;75.11;92964.63;2051704;70;20490;-80
2023/09/15 04:38:32;;;;;;;6.15;4.15;;;;;;;16.77;75.61;92953.09;2053038;70;20177;-81
2023/09/15 04:40:58;;;;;;;8.63;4.35;;;;;;;16.79;75.99;92958.13;2054735;70;20137;-80
2023/09/15 04:43:24;;;;;;;6.47;4.50;;;;;;;16.70;76.27;92963.44;2054648;70;20153;-83
2023/09/15 04:45:50;;;;;;;6.90;4.60;;;;;;;16.64;76.58;92965.28;2055076;69;20170;-82
2023/09/15 04:48:16;;;;;;;8.80;4.50;;;;;;;16.62;76.14;92980.13;2054552;69;20146;-85
2023/09/15 04:50:42;;;;;;;6.75;4.78;;;;;;;16.60;76.06;92974.38;2054525;70;20270;-85
2023/09/15 04:53:07;;;;;;;6.82;4.32;;;;;;;16.52;75.07;92959.81;2054472;70;20164;-80
2023/09/15 04:55:34;;;;;;;9.40;5.22;;;;;;;16.58;76.72;92984.91;2054880;69;20146;-80
2023/09/15 04:58:01;;;;;;;8.82;4.80;;;;;;;16.57;76.61;92977.78;2054344;69;20146;-83
2023/09/15 05:00:34;;;;;;;6.20;4.43;;;;;;;16.54;76.49;92976.97;2054411;70;20137;-82
2023/09/15 05:03:00;;;;;;;;;;;;;;;16.61;76.55;92980.78;2052029;70;20208;-84
2023/09/15 05:05:26;;;;;;;8.95;4.68;;;;;;;16.47;76.30;92986.59;2054432;70;20506;-80
2023/09/15 05:07:52;;;;;;;7.63;4.57;;;;;;;16.46;76.35;92991.53;2054417;70;20169;-79
2023/09/15 05:10:18;;;;;;;6.95;4.35;;;;;;;16.35;76.71;92986.78;2054166;70;20149;-83
2023/09/15 05:12:44;;;;;;;6.78;4.47;;;;;;;16.38;76.69;92999.72;2054414;70;20153;-83
2023/09/15 05:15:10;;;;;;;9.23;4.75;;;;;;;16.32;77.42;92995.88;2054303;70;20170;-79
2023/09/15 05:17:38;;;;;;;6.82;4.68;;;;;;;16.28;77.28;93002.09;2054418;70;20138;-82
2023/09/15 05:20:04;;;;;;;6.25;4.50;;;;;;;16.24;77.49;92999.81;2054898;69;20146;-80
2023/09/15 05:22:30;;;;;;;8.70;4.50;;;;;;;16.24;77.31;92993.41;2054440;70;20238;-80
2023/09/15 05:24:58;;;;;;;7.35;4.55;;;;;;;16.23;77.84;92995.50;2054286;70;20162;-79
2023/09/15 05:27:23;;;;;;;12.35;5.78;;;;;;;16.22;77.78;92993.31;2054409;70;20146;-79
2023/09/15 05:29:50;;;;;;;11.27;6.60;;;;;;;16.21;77.51;92998.25;2054400;70;20156;-82
2023/09/15 05:32:16;;;;;;;10.50;5.30;;;;;;;16.27;76.99;92981.50;2054393;70;20616;-80
2023/09/15 05:34:41;;;;;;;9.25;5.10;;;;;;;16.24;77.49;92999.09;2054370;70;20150;-83
2023/09/15 05:37:07;;;;;;;7.95;5.10;;;;;;;16.22;77.54;92999.72;2054473;70;20138;-80
2023/09/15 05:39:33;;;;;;;6.90;4.72;;;;;;;16.17;77.48;93000.16;2054282;70;20562;-80
2023/09/15 05:42:00;;;;;;;5.60;4.90;;;;;;;16.14;78.09;93002.19;2054377;70;20156;-78
2023/09/15 05:44:26;;;;;;;8.10;5.00;;;;;;;16.19;77.28;93000.28;2054953;69;20130;-79
2023/09/15 05:46:53;;;;;;;9.15;5.00;;;;;;;16.24;77.14;93002.66;2055050;69;20178;-76
2023/09/15 05:49:19;;;;;;;9.80;5.40;;;;;;;16.23;77.22;93001.19;2054930;69;20189;-78
2023/09/15 05:51:44;;;;;;;9.32;5.13;;;;;;;16.27;76.77;93012.75;2054898;69;20162;-77
2023/09/15 05:54:10;;;;;;;9.73;5.93;;;;;;;16.16;77.69;93005.13;2054792;69;20763;-77
2023/09/15 05:56:35;;;;;;;7.18;5.55;;;;;;;16.17;77.23;93008.69;2054821;70;20134;-78
2023/09/15 05:59:03;;;;;;;8.20;5.65;;;;;;;16.23;76.90;93006.88;2054529;69;20566;-76
2023/09/15 06:01:33;;;;;;;6.63;4.90;;;;;;;16.24;76.68;93008.34;2054367;70;20282;-76
2023/09/15 06:03:59;;;;;;;6.82;4.60;;;;;;;16.24;76.58;93001.91;2055056;70;20616;-81
2023/09/15 06:06:25;;;;;;;8.68;5.22;;;;;;;16.20;77.06;93011.00;2055087;69;20170;-80
2023/09/15 06:08:51;;;;;;;6.97;5.00;;;;;;;16.19;76.89;93005.97;2054897;69;20141;-79
2023/09/15 06:11:16;;;;;;;5.82;4.50;;;;;;;16.15;76.79;93008.63;2055050;69;20136;-80
2023/09/15 06:13:42;;;;;;;8.88;4.70;;;;;;;16.13;77.22;93005.69;2054983;69;20138;-77
2023/09/15 06:16:08;;;;;;;8.25;4.90;;;;;;;16.05;77.28;93000.38;2054341;70;20491;-78
2023/09/15 06:18:34;;;;;;;9.07;5.13;;;;;;;16.09;77.50;93008.34;2054282;70;20161;-76
2023/09/15 06:21:00;;;;;;;7.28;4.75;;;;;;;16.12;77.54;92999.25;2054916;69;20158;-77
2023/09/15 06:23:26;;;;;;;8.85;5.13;;;;;;;16.09;77.19;93002.66;2054744;69;20228;-76
2023/09/15 06:25:52;;;;;;;10.38;5.80;;;;;;;16.20;75.76;92990.38;2054785;69;20610;-77
2023/09/15 06:28:19;;;;;;;7.00;4.82;;;;;;;16.23;76.01;92994.78;2055419;69;20138;-78
2023/09/15 06:30:45;;;;;;;8.68;5.07;;;;;;;16.25;76.29;92992.03;2054610;70;20157;-78
2023/09/15 06:33:11;;;;;;;7.30;4.85;;;;;;;16.09;77.16;92991.31;2055138;69;20150;-77
2023/09/15 06:35:37;;;;;;;7.00;4.90;;;;;;;16.08;77.40;92995.50;2055393;69;20153;-78
2023/09/15 06:38:03;;;;;;;8.23;4.82;;;;;;;16.10;77.39;92989.94;2056935;69;20188;-78
2023/09/15 06:40:29;;;;;;;7.60;4.80;;;;;;;16.14;77.38;92982.31;2058579;69;20149;-79
2023/09/15 06:42:54;;;;;;;7.95;4.93;;;;;;;16.14;77.65;92985.16;2058656;69;20157;-79
2023/09/15 06:45:20;;;;;;;5.60;4.53;;;;;;;16.22;76.38;92988.38;2058542;69;20170;-78
2023/09/15 06:47:45;;;;;;;7.88;4.80;;;;;;;16.15;78.58;92988.72;2058618;69;20225;-81
2023/09/15 06:50:12;;;;;;;7.40;5.00;;;;;;;16.20;77.98;92987.53;2055179;69;20141;-80
2023/09/15 06:52:38;;;;;;;6.85;4.97;;;;;;;16.01;78.33;92997.34;2059160;69;20153;-78
2023/09/15 06:55:04;;;;;;;7.00;5.20;;;;;;;16.18;77.58;92995.97;2058473;69;20153;-77
2023/09/15 06:57:29;;;;;;;10.80;5.30;;;;;;;16.27;77.08;92997.81;2058515;69;20168;-78
2023/09/15 06:59:55;;;;;;;10.02;5.15;;;;;;;16.41;76.23;92998.44;2058533;69;20146;-77
2023/09/15 07:02:21;;;;;;;6.97;5.07;;;;;;;16.20;77.80;92998.91;2058411;69;20229;-78
2023/09/15 07:04:46;;;;;;;5.47;4.30;;;;;;;16.37;77.72;92989.72;2059153;69;20245;-75
2023/09/15 07:07:12;;;;;;;5.55;4.22;;;;;;;16.53;76.47;93001.78;2059362;69;20227;-76
2023/09/15 07:09:37;;;;;;;6.75;4.40;;;;;;;16.63;77.42;92993.00;2059000;69;20137;-77
2023/09/15 07:12:04;;;;;;;6.22;4.15;;;;;;;16.65;76.58;92993.06;2058448;69;20149;-79
2023/09/15 07:14:29;;;;;;;7.07;4.10;;;;;;;16.62;76.26;92994.34;2058334;69;20145;-78
2023/09/15 07:16:55;;;;;;;8.25;4.40;;;;;;;17.04;74.86;92997.56;2058340;69;20156;-77
2023/09/15 07:19:21;;;;;;;4.25;3.75;;;;;;;17.35;74.69;92990.28;2054784;69;20332;-77
2023/09/15 07:21:47;;;;;;;9.93;4.00;;;;;;;17.40;75.74;92992.63;2055010;69;20157;-77
2023/09/15 07:24:13;;;;;;;5.28;3.85;;;;;;;17.87;74.63;92994.50;2059146;69;20144;-79
2023/09/15 07:26:38;;;;;;;5.85;4.20;;;;;;;17.90;74.14;92986.75;2059415;69;20145;-81
2023/09/15 07:29:04;;;;;;;5.20;4.10;;;;;;;18.15;73.75;92989.16;2059669;69;20591;-80
2023/09/15 07:31:35;;;;;;;6.28;4.18;;;;;;;18.14;72.96;92979.13;2058400;69;20184;-79
2023/09/15 07:34:01;;;;;;;4.45;3.60;;;;;;;18.91;71.48;92989.00;2058407;69;20306;-78
2023/09/15 07:36:26;;;;;;;7.80;4.00;;;;;;;18.75;70.38;92983.47;2058172;69;20146;-78
2023/09/15 07:38:53;;;;;;;8.35;4.03;;;;;;;19.24;69.82;92987.97;2058137;69;20280;-80
2023/09/15 07:41:19;;;;;;;5.25;4.13;;;;;;;19.47;69.06;92975.91;2058452;69;20586;-81
2023/09/15 07:43:45;;;;;;;5.13;3.72;;;;;;;19.80;67.50;92983.41;2054928;69;20153;-78
2023/09/15 07:46:13;;;;;;;6.80;3.63;;;;;;;20.19;66.44;92983.84;2058315;69;20205;-78
2023/09/15 07:48:42;;;;;;;5.60;3.30;;;;;;;20.22;64.58;92986.09;2058263;69;20146;-81
2023/09/15 07:51:08;;;;;;;7.88;3.78;;;;;;;20.63;63.86;92983.69;2058309;69;20150;-79
2023/09/15 07:53:33;;;;;;;6.00;3.75;;;;;;;20.00;63.28;92986.16;2058147;69;20138;-80
2023/09/15 07:55:59;;;;;;;4.32;3.80;;;;;;;20.61;62.92;92981.50;2058193;69;20302;-80
2023/09/15 07:58:25;;;;;;;4.00;3.42;;;;;;;20.73;62.95;92981.84;2058226;69;20490;-80
2023/09/15 08:00:50;;;;;;;8.20;4.35;;;;;;;21.03;63.43;92979.09;2058216;69;20185;-80
2023/09/15 08:03:16;;;;;;;6.15;3.80;;;;;;;21.35;62.58;92975.63;2058252;69;20153;-80
2023/09/15 08:05:42;;;;;;;7.22;4.13;;;;;;;21.83;61.73;92978.19;2054702;69;20138;-82
2023/09/15 08:08:08;;;;;;;6.95;3.78;;;;;;;21.90;61.18;92979.81;2058238;69;20192;-84
2023/09/15 08:10:34;;;;;;;4.82;3.65;;;;;;;22.27;59.13;92974.91;2054467;69;20180;-79
2023/09/15 08:12:59;;;;;;;3.95;3.40;;;;;;;22.57;57.53;92974.81;2054639;69;20144;-79
2023/09/15 08:15:25;;;;;;;3.67;3.15;;;;;;;22.75;57.51;92971.59;2058245;69;20137;-79
2023/09/15 08:17:51;;;;;;;7.65;3.60;;;;;;;22.97;57.73;92966.31;2058211;69;20149;-80
2023/09/15 08:20:17;;;;;;;6.57;3.30;;;;;;;22.68;55.96;92967.13;2058163;69;20606;-83
2023/09/15 08:22:43;;;;;;;4.20;3.20;;;;;;;22.91;57.54;92969.06;2058193;69;20142;-83
2023/09/15 08:25:12;;;;;;;4.28;3.17;;;;;;;22.86;55.30;92956.00;2058101;69;20141;-79
2023/09/15 08:27:38;;;;;;;3.20;2.90;;;;;;;23.44;54.33;92957.78;2058191;69;20166;-83
2023/09/15 08:30:05;;;;;;;3.80;3.10;;;;;;;23.88;52.86;92957.09;2058285;69;20151;-81
2023/09/15 08:32:32;;;;;;;5.25;3.28;;;;;;;23.99;52.57;92950.06;2054573;69;20161;-83
2023/09/15 08:34:58;;;;;;;4.65;3.38;;;;;;;23.83;51.84;92948.41;2058340;69;20517;-80
2023/09/15 08:37:24;;;;;;;3.55;3.00;;;;;;;24.21;51.70;92949.66;2058257;69;20149;-84
2023/09/15 08:39:50;;;;;;;3.40;3.10;;;;;;;24.56;50.85;92942.25;2057940;69;20142;-86
2023/09/15 08:42:42;;;;;;;3.65;3.30;;;;;;;25.13;50.03;92939.31;2054566;69;20157;-83
2023/09/15 08:45:09;;;;;;;3.10;2.80;;;;;;;25.12;48.64;92932.09;2057809;69;20142;-85
2023/09/15 08:47:39;;;;;;;3.20;2.90;;;;;;;25.65;48.11;92941.94;2052296;69;20250;-85
2023/09/15 08:50:06;;;;;;;3.75;3.17;;;;;;;25.77;47.03;92952.88;2058744;69;20150;-81
2023/09/15 08:52:34;;;;;;;4.35;3.05;;;;;;;26.07;47.14;92940.84;2055047;69;20142;-81
2023/09/15 08:55:01;;;;;;;4.28;3.50;;;;;;;26.72;47.08;92944.13;2058536;69;20268;-80
2023/09/15 08:57:29;;;;;;;3.88;3.35;;;;;;;26.69;46.34;92936.88;2055121;69;20154;-81
2023/09/15 08:59:55;;;;;;;4.35;3.20;;;;;;;26.39;45.46;92931.69;2054963;69;20156;-83
2023/09/15 09:02:23;;;;;;;5.90;3.40;;;;;;;26.31;44.66;92931.63;2058748;69;20145;-81
2023/09/15 09:04:50;;;;;;;3.75;3.25;;;;;;;26.45;45.08;92933.88;2058723;69;20613;-81
2023/09/15 09:07:16;;;;;;;3.80;3.38;;;;;;;26.86;46.20;92915.28;2059098;69;20149;-79
2023/09/15 09:09:44;;;;;;;4.55;3.50;;;;;;;27.71;45.13;92927.72;2058552;69;20138;-80
2023/09/15 09:12:09;;;;;;;6.78;3.60;;;;;;;27.85;43.37;92931.38;2058752;69;20243;-80
2023/09/15 09:14:35;;;;;;;3.33;3.13;;;;;;;28.35;42.94;92924.09;2058626;69;20585;-80
2023/09/15 09:17:01;;;;;;;3.63;3.17;;;;;;;28.44;43.15;92926.97;2058665;69;20580;-81
2023/09/15 09:19:46;;;;;;;4.15;3.75;;;;;;;28.04;43.30;92923.41;2058679;69;20138;-82
2023/09/15 09:22:16;;;;;;;7.65;3.72;;;;;;;28.50;42.74;92921.16;2058630;69;20138;-81
2023/09/15 09:24:42;;;;;;;3.47;3.05;;;;;;;29.29;42.13;92911.44;2054986;69;20145;-81
2023/09/15 09:27:16;;;;;;;4.25;3.30;;;;;;;29.70;40.86;92914.09;2058577;69;20149;-80
2023/09/15 09:29:42;;;;;;;3.38;3.10;;;;;;;29.81;41.26;92924.13;2058709;69;20177;-81
2023/09/15 09:32:13;;;;;;;4.57;3.42;;;;;;;29.61;40.02;92914.13;2058618;69;20567;-81
2023/09/15 09:34:39;;;;;;;3.90;3.53;;;;;;;28.33;41.14;92909.63;2058562;69;20133;-82
2023/09/15 09:37:04;;;;;;;3.85;3.30;;;;;;;29.47;41.35;92919.28;2055016;69;20594;-82
2023/09/15 09:39:30;;;;;;;4.50;3.50;;;;;;;29.12;40.59;92907.91;2058300;69;20597;-82
2023/09/15 09:41:57;;;;;;;3.83;2.90;;;;;;;30.42;39.11;92903.28;2058613;69;20618;-82
2023/09/15 09:44:24;;;;;;;3.92;2.95;;;;;;;30.52;39.48;92908.28;2058535;69;20590;-82
2023/09/15 09:46:53;;;;;;;4.15;2.83;;;;;;;31.20;38.38;92914.00;2055139;69;20165;-81
2023/09/15 09:49:19;;;;;;;3.63;3.17;;;;;;;30.01;38.68;92917.44;2058668;69;20209;-84
2023/09/15 09:51:45;;;;;;;3.88;2.90;;;;;;;30.48;36.74;92911.94;2058598;69;20145;-81
2023/09/15 09:54:14;;;;;;;3.33;2.88;;;;;;;31.72;37.79;92909.63;2058590;69;20154;-82
2023/09/15 09:56:47;;;;;;;3.67;2.85;;;;;;;32.21;36.13;92890.66;2058706;69;20203;-82
2023/09/15 09:59:15;;;;;;;3.30;3.00;;;;;;;31.96;37.28;92902.72;2058691;69;20220;-82
2023/09/15 10:01:41;;;;;;;3.63;3.15;;;;;;;31.15;37.61;92898.78;2058420;69;20604;-82
2023/09/15 10:04:07;;;;;;;2.85;2.65;;;;;;;33.01;35.26;92901.56;2061879;69;20186;-82
2023/09/15 10:06:35;;;;;;;3.00;2.80;;;;;;;33.37;34.73;92894.22;2061836;69;20150;-80
2023/09/15 10:09:05;;;;;;;3.30;3.00;;;;;;;33.81;33.96;92889.56;2061741;69;20272;-81
2023/09/15 10:11:35;;;;;;;4.13;3.20;;;;;;;33.68;34.12;92888.44;2062040;69;20171;-84
2023/09/15 10:14:04;;;;;;;5.00;3.10;;;;;;;33.38;34.13;92892.75;2061900;69;20184;-85
2023/09/15 10:16:34;;;;;;;4.00;3.60;;;;;;;33.86;34.25;92885.09;2061899;69;20269;-84
2023/09/15 10:19:04;;;;;;;3.85;3.50;;;;;;;34.57;32.99;92885.50;2061755;69;20234;-82
2023/09/15 10:21:33;;;;;;;4.43;3.33;;;;;;;33.62;32.91;92879.81;2061808;69;20160;-85
2023/09/15 10:24:09;;;;;;;3.95;3.55;;;;;;;31.78;37.76;92871.69;2061794;69;20685;-84
2023/09/15 10:26:39;;;;;;;4.05;3.03;;;;;;;34.26;33.33;92868.03;2058304;69;20229;-84
2023/09/15 10:29:05;;;;;;;3.58;3.22;;;;;;;35.69;31.18;92875.00;2058303;69;20598;-83
2023/09/15 10:31:34;;;;;;;3.40;3.10;;;;;;;37.42;31.55;92871.97;2061748;69;20257;-83
2023/09/15 10:34:01;;;;;;;3.40;3.10;;;;;;;36.90;30.16;92873.13;2058287;69;20129;-82
2023/09/15 10:36:29;;;;;;;4.85;3.50;;;;;;;35.75;31.24;92868.97;2061760;69;20157;-83
2023/09/15 10:38:57;;;;;;;3.35;3.08;;;;;;;36.45;30.81;92870.34;2061451;69;20157;-82
2023/09/15 10:41:29;;;;;;;5.50;3.08;;;;;;;38.21;29.09;92871.06;2061765;69;20157;-84
2023/09/15 10:43:55;;;;;;;4.00;3.10;;;;;;;38.35;28.85;92870.50;2061717;69;20631;-83
2023/09/15 10:46:21;;;;;;;6.35;3.30;;;;;;;37.83;28.67;92862.28;2058800;69;20196;-82
2023/09/15 10:48:48;;;;;;;4.43;3.13;;;;;;;38.55;27.45;92860.09;2058581;69;20240;-79
2023/09/15 10:51:18;;;;;;;3.30;3.00;;;;;;;40.46;26.62;92860.88;2061718;69;20171;-78
2023/09/15 10:53:59;;;;;;;3.33;2.80;;;;;;;40.05;26.94;92848.88;2061631;69;20216;-80
2023/09/15 10:56:25;;;;;;;5.78;2.85;;;;;;;39.32;27.35;92852.34;2061882;69;20145;-80
2023/09/15 10:58:51;;;;;;;2.85;2.65;;;;;;;40.36;25.09;92853.97;2061597;69;20149;-80
2023/09/15 11:01:19;;;;;;;3.25;2.70;;;;;;;40.79;26.82;92845.91;2061657;69;20146;-79
2023/09/15 11:03:45;;;;;;;2.58;2.22;;;;;;;41.41;24.06;92843.41;2061572;69;20188;-81
2023/09/15 11:06:15;;;;;;;2.40;2.20;;;;;;;41.35;25.01;92841.47;2061557;69;20136;-79
2023/09/15 11:08:42;;;;;;;2.45;2.25;;;;;;;41.11;24.23;92836.91;2057822;69;20296;-81
2023/09/15 11:11:09;;;;;;;2.38;2.15;;;;;;;42.90;23.10;92834.91;2058087;69;20277;-81
2023/09/15 11:13:37;;;;;;;2.13;1.88;;;;;;;45.36;21.52;92835.25;2061756;69;20599;-80
2023/09/15 11:16:03;;;;;;;2.88;1.90;;;;;;;45.02;21.89;92833.16;2057991;69;20141;-81
2023/09/15 11:18:34;;;;;;;3.42;2.05;;;;;;;45.95;21.70;92834.03;2061610;69;20168;-82
2023/09/15 11:21:01;;;;;;;3.15;1.80;;;;;;;45.16;20.95;92818.88;2057799;69;20223;-81
2023/09/15 11:23:28;;;;;;;1.95;1.80;;;;;;;44.17;21.40;92824.03;2061813;69;20153;-83
2023/09/15 11:26:03;;;;;;;2.85;1.83;;;;;;;43.17;21.80;92813.31;2061609;69;20142;-80
2023/09/15 11:28:35;;;;;;;2.72;1.90;;;;;;;45.97;21.40;92821.31;2061611;69;20130;-80
2023/09/15 11:31:05;;;;;;;1.77;1.67;;;;;;;48.69;18.87;92825.41;2061667;69;20252;-80
2023/09/15 11:33:31;;;;;;;1.80;1.70;;;;;;;47.04;20.34;92812.53;2061621;69;20244;-79
2023/09/15 11:36:01;;;;;;;2.20;1.65;;;;;;;47.92;19.41;92819.81;2061721;69;20157;-80
2023/09/15 11:38:43;;;;;;;2.15;1.60;;;;;;;49.67;18.93;92810.34;2061455;69;20244;-80
2023/09/15 11:41:12;;;;;;;1.60;1.50;;;;;;;48.13;17.60;92810.66;2061578;69;20198;-80
2023/09/15 11:43:40;;;;;;;2.00;1.80;;;;;;;48.20;17.00;92811.53;2061599;69;20141;-81
2023/09/15 11:46:09;;;;;;;1.60;1.50;;;;;;;48.87;16.64;92811.22;2061575;69;20150;-81